Time;durP1;ratioP1;P1;durP2;ratioP2;P2;SDS_P1;SDS_P2;PMS_P1;PMS_P2;Temp;Humidity;BMP_temperature;BMP_pressure;BME280_temperature;BME280_humidity;BME280_pressure;Samples;Min_cycle;Max_cycle;Signal;HPM_P1;HPM_P2
2023/09/28 00:02:42;;;;;;;7.72;5.93;;;;;;;18.97;56.89;99458.25;5128734;27;20092;-76
2023/09/28 00:05:10;;;;;;;7.47;6.65;;;;;;;18.98;56.94;99462.66;5147723;27;20047;-75
2023/09/28 00:07:37;;;;;;;8.23;7.13;;;;;;;18.92;57.01;99461.34;5130268;27;20039;-75
2023/09/28 00:10:03;;;;;;;7.35;6.65;;;;;;;17.99;56.81;99304.09;5130242;27;20203;-74
2023/09/28 00:12:31;;;;;;;9.32;7.85;;;;;;;18.88;56.94;99465.28;5147305;27;20307;-74
2023/09/28 00:14:57;;;;;;;8.85;6.93;;;;;;;18.89;57.32;99460.78;5147889;27;20290;-75
2023/09/28 00:17:23;;;;;;;7.30;6.50;;;;;;;18.51;57.16;99402.34;5147315;27;20079;-75
2023/09/28 00:19:50;;;;;;;11.15;7.03;;;;;;;18.63;57.43;99427.31;5128767;27;20043;-75
2023/09/28 00:22:17;;;;;;;10.30;7.13;;;;;;;18.73;56.81;99455.91;5147690;27;20042;-75
2023/09/28 00:24:43;;;;;;;10.98;7.63;;;;;;;18.74;57.71;99454.91;5129091;27;20041;-75
2023/09/28 00:27:10;;;;;;;11.02;7.28;;;;;;;18.10;57.59;99349.59;5146585;27;20114;-75
2023/09/28 00:29:35;;;;;;;9.98;7.28;;;;;;;18.69;57.71;99450.94;5146921;27;20054;-75
2023/09/28 00:32:04;;;;;;;8.23;7.18;;;;;;;18.67;57.54;99460.94;5147479;27;20114;-75
2023/09/28 00:34:30;;;;;;;7.78;6.07;;;;;;;17.59;57.56;99278.84;5128894;27;20321;-75
2023/09/28 00:36:58;;;;;;;9.00;8.00;;;;;;;18.62;57.72;99453.28;5147138;27;20043;-75
2023/09/28 00:39:24;;;;;;;8.02;6.38;;;;;;;18.31;57.69;99401.41;5147029;27;20043;-75
2023/09/28 00:41:51;;;;;;;7.70;6.90;;;;;;;18.57;57.14;99447.47;5147120;27;20051;-75
2023/09/28 00:44:17;;;;;;;10.30;6.80;;;;;;;18.57;57.53;99444.78;5147339;27;20042;-76
2023/09/28 00:46:44;;;;;;;8.30;6.13;;;;;;;18.55;57.28;99457.50;5129312;27;20035;-76
2023/09/28 00:49:17;;;;;;;8.85;6.00;;;;;;;18.11;56.43;99387.03;5147026;27;20051;-76
2023/09/28 00:51:44;;;;;;;9.35;6.38;;;;;;;17.26;56.34;99247.72;5146783;27;20330;-76
2023/09/28 00:54:13;;;;;;;6.53;5.90;;;;;;;18.48;56.88;99448.25;5146684;27;20241;-76
2023/09/28 00:56:40;;;;;;;7.28;6.03;;;;;;;18.06;56.52;99389.25;5146678;27;20042;-75
2023/09/28 00:59:07;;;;;;;8.15;6.20;;;;;;;18.46;56.87;99447.53;5128700;28;20039;-76
2023/09/28 01:01:32;;;;;;;8.65;6.78;;;;;;;18.41;56.60;99447.91;5146789;28;20043;-76
2023/09/28 01:04:05;;;;;;;8.63;5.60;;;;;;;17.95;56.52;99370.53;5146884;28;20083;-76
2023/09/28 01:06:31;;;;;;;7.30;5.53;;;;;;;18.41;56.73;99441.69;5146541;28;20039;-76
2023/09/28 01:08:58;;;;;;;8.82;5.97;;;;;;;17.05;56.15;99232.59;5146489;28;20114;-76
2023/09/28 01:11:28;;;;;;;8.20;6.30;;;;;;;18.36;56.57;99441.25;5146510;28;20035;-75
2023/09/28 01:13:55;;;;;;;8.77;6.20;;;;;;;17.96;56.42;99385.66;5129040;28;20039;-76
2023/09/28 01:16:21;;;;;;;6.63;5.88;;;;;;;18.24;56.46;99448.50;5147358;28;20212;-76
2023/09/28 01:18:48;;;;;;;8.70;6.70;;;;;;;18.01;56.42;99418.28;5145986;28;20054;-76
2023/09/28 01:21:13;;;;;;;8.20;6.28;;;;;;;18.20;56.66;99445.25;5146513;28;20039;-76
2023/09/28 01:23:43;;;;;;;8.23;6.68;;;;;;;17.45;57.12;99322.03;5146613;28;20050;-76
2023/09/28 01:26:09;;;;;;;7.55;6.57;;;;;;;18.13;56.93;99441.38;5128323;28;20062;-75
2023/09/28 01:28:35;;;;;;;12.70;6.22;;;;;;;18.14;57.34;99439.53;5146874;28;20046;-75
2023/09/28 01:31:01;;;;;;;7.95;6.38;;;;;;;17.81;56.91;99385.13;5150487;27;20047;-75
2023/09/28 01:33:29;;;;;;;7.20;5.93;;;;;;;18.12;56.98;99445.03;5151009;27;20050;-76
2023/09/28 01:35:55;;;;;;;7.28;6.57;;;;;;;18.09;57.31;99436.41;5150487;27;20252;-76
2023/09/28 01:38:28;;;;;;;8.35;6.53;;;;;;;18.09;57.46;99439.94;5150894;27;20116;-76
2023/09/28 01:40:55;;;;;;;7.65;6.18;;;;;;;18.11;57.41;99437.97;5132185;27;20042;-76
2023/09/28 01:43:22;;;;;;;9.95;6.45;;;;;;;18.07;57.34;99425.81;5150451;27;20088;-76
2023/09/28 01:45:49;;;;;;;11.18;6.43;;;;;;;18.08;57.53;99432.03;5150105;27;20043;-76
2023/09/28 01:48:16;;;;;;;8.60;6.53;;;;;;;17.26;57.51;99319.19;5150082;27;20295;-76
2023/09/28 01:50:42;;;;;;;7.63;6.63;;;;;;;18.02;57.62;99437.91;5132056;27;20055;-76
2023/09/28 01:53:08;;;;;;;10.85;6.45;;;;;;;17.94;56.52;99438.56;5149907;27;20122;-76
2023/09/28 01:55:34;;;;;;;10.75;7.22;;;;;;;17.84;56.97;99429.59;5131945;27;20391;-76
2023/09/28 01:58:04;;;;;;;7.18;6.35;;;;;;;16.73;57.69;99246.81;5150230;27;20047;-76
2023/09/28 02:00:30;;;;;;;11.02;6.38;;;;;;;17.96;57.28;99433.91;5131752;27;20050;-76
2023/09/28 02:02:57;;;;;;;11.13;8.95;;;;;;;17.83;56.06;99427.88;5149845;27;20318;-74
2023/09/28 02:05:25;;;;;;;12.73;9.25;;;;;;;17.70;56.52;99428.06;5150040;27;20096;-74
2023/09/28 02:07:52;;;;;;;14.50;10.60;;;;;;;17.77;56.51;99431.06;5149751;27;20317;-74
2023/09/28 02:10:19;;;;;;;13.50;8.73;;;;;;;17.65;56.47;99429.41;5149935;27;20324;-74
2023/09/28 02:12:44;;;;;;;9.90;8.45;;;;;;;17.58;56.32;99421.84;5150121;27;20054;-74
2023/09/28 02:15:15;;;;;;;8.77;6.82;;;;;;;17.51;56.77;99417.13;5149663;27;20062;-74
2023/09/28 02:17:41;;;;;;;7.68;6.82;;;;;;;17.48;56.92;99418.25;5149817;27;20059;-74
2023/09/28 02:20:10;;;;;;;12.98;7.32;;;;;;;17.43;56.90;99417.75;5149157;27;20151;-74
2023/09/28 02:22:36;;;;;;;9.70;6.75;;;;;;;16.92;56.86;99338.00;5149942;27;20095;-74
2023/09/28 02:25:05;;;;;;;6.97;6.18;;;;;;;17.31;57.16;99411.59;5149981;27;20059;-74
2023/09/28 02:27:31;;;;;;;10.15;6.80;;;;;;;16.96;56.96;99360.03;5149636;27;20058;-76
2023/09/28 02:29:59;;;;;;;8.63;6.05;;;;;;;17.36;57.42;99402.31;5149146;27;20031;-76
2023/09/28 02:32:26;;;;;;;7.93;6.25;;;;;;;17.18;57.34;99362.66;5149558;27;20309;-76
2023/09/28 02:34:52;;;;;;;8.18;5.75;;;;;;;17.29;57.74;99375.19;5149784;27;20099;-76
2023/09/28 02:37:18;;;;;;;15.75;6.70;;;;;;;17.53;57.26;99409.81;5149447;27;20096;-76
2023/09/28 02:39:45;;;;;;;8.57;6.20;;;;;;;17.63;57.74;99432.22;5148642;27;20051;-76
2023/09/28 02:42:11;;;;;;;10.27;6.13;;;;;;;17.66;58.37;99426.59;5148727;27;20244;-78
2023/09/28 02:44:38;;;;;;;9.38;6.47;;;;;;;17.68;58.26;99418.44;5131621;27;20057;-76
2023/09/28 02:47:05;;;;;;;7.72;6.88;;;;;;;17.68;58.18;99443.41;5131039;27;20287;-77
2023/09/28 02:49:33;;;;;;;7.45;5.88;;;;;;;17.71;57.76;99429.75;5149015;27;20035;-76
2023/09/28 02:51:59;;;;;;;8.50;6.22;;;;;;;17.31;57.98;99371.41;5149011;27;20055;-76
2023/09/28 02:54:26;;;;;;;6.60;5.85;;;;;;;16.50;57.93;99234.44;5131585;27;20100;-76
2023/09/28 02:56:53;;;;;;;7.38;5.90;;;;;;;17.69;57.63;99430.88;5130746;27;20043;-76
2023/09/28 02:59:22;;;;;;;13.98;6.85;;;;;;;17.66;57.54;99436.47;5148766;27;20039;-76
2023/09/28 03:01:48;;;;;;;8.25;6.15;;;;;;;17.72;58.04;99426.09;5148674;27;20039;-76
2023/09/28 03:04:16;;;;;;;8.60;7.00;;;;;;;17.42;57.50;99380.38;5130905;27;20043;-77
2023/09/28 03:06:44;;;;;;;10.32;6.55;;;;;;;17.36;58.15;99392.47;5148580;27;20046;-76
2023/09/28 03:09:11;;;;;;;8.70;6.10;;;;;;;17.21;57.72;99364.25;5148548;27;20039;-77
2023/09/28 03:11:39;;;;;;;8.80;6.80;;;;;;;17.69;57.59;99437.06;5148520;27;20035;-77
2023/09/28 03:14:05;;;;;;;7.53;6.72;;;;;;;17.28;57.63;99386.88;5130463;27;20039;-76
2023/09/28 03:16:32;;;;;;;9.70;6.57;;;;;;;17.56;58.00;99442.56;5130368;27;20057;-76
2023/09/28 03:18:58;;;;;;;8.38;6.80;;;;;;;17.53;58.61;99442.81;5148540;27;20307;-77
2023/09/28 03:21:25;;;;;;;10.27;6.93;;;;;;;17.04;58.66;99378.16;5130914;27;20079;-76
2023/09/28 03:23:52;;;;;;;9.02;7.25;;;;;;;17.42;58.78;99428.59;5148271;27;20045;-76
2023/09/28 03:26:20;;;;;;;9.00;6.80;;;;;;;17.20;59.21;99443.75;5148813;27;20050;-76
2023/09/28 03:28:45;;;;;;;9.27;6.80;;;;;;;17.22;59.62;99441.81;5130957;27;20035;-76
2023/09/28 03:31:12;;;;;;;9.90;7.55;;;;;;;16.90;59.42;99392.66;5130091;27;20042;-76
2023/09/28 03:33:38;;;;;;;10.57;6.90;;;;;;;16.14;59.70;99247.13;5148021;27;20051;-76
2023/09/28 03:36:06;;;;;;;8.20;7.40;;;;;;;16.92;60.08;99363.94;5148015;27;20256;-77
2023/09/28 03:38:33;;;;;;;11.73;7.57;;;;;;;17.08;59.92;99399.19;5148516;27;20096;-76
2023/09/28 03:41:01;;;;;;;7.43;6.45;;;;;;;16.93;59.60;99373.66;5129917;27;20039;-76
2023/09/28 03:43:28;;;;;;;9.40;6.95;;;;;;;17.33;60.03;99450.78;5130625;27;20080;-76
2023/09/28 03:45:55;;;;;;;10.63;7.25;;;;;;;16.90;60.41;99374.75;5129735;27;20294;-76
2023/09/28 03:48:22;;;;;;;8.50;7.57;;;;;;;17.31;60.54;99449.09;5147780;27;20104;-76
2023/09/28 03:50:49;;;;;;;8.82;7.28;;;;;;;17.29;60.64;99445.69;5147629;27;20038;-76
2023/09/28 03:53:15;;;;;;;9.50;6.65;;;;;;;17.27;60.53;99453.00;5146504;27;20059;-77
2023/09/28 03:55:43;;;;;;;13.38;6.70;;;;;;;16.98;60.48;99388.38;5147598;27;20051;-77
2023/09/28 03:58:11;;;;;;;9.75;7.13;;;;;;;16.92;60.66;99391.56;5147763;27;20045;-77
2023/09/28 04:00:38;;;;;;;8.73;6.78;;;;;;;17.23;60.49;99445.34;5147669;27;20043;-76
2023/09/28 04:03:05;;;;;;;8.25;6.40;;;;;;;17.28;60.58;99432.41;5130190;27;20043;-77
2023/09/28 04:05:32;;;;;;;9.43;6.72;;;;;;;17.15;60.39;99437.88;5147404;27;20035;-76
2023/09/28 04:07:59;;;;;;;9.07;7.40;;;;;;;17.20;60.88;99457.16;5147912;27;20042;-77
2023/09/28 04:10:26;;;;;;;14.85;7.50;;;;;;;17.22;60.73;99439.13;5147329;27;20039;-77
2023/09/28 04:12:53;;;;;;;11.23;7.88;;;;;;;16.72;61.20;99354.84;5146714;27;20274;-77
2023/09/28 04:15:22;;;;;;;10.30;8.63;;;;;;;16.78;61.07;99365.03;5129199;27;20080;-76
2023/09/28 04:17:49;;;;;;;9.48;7.80;;;;;;;16.87;60.88;99388.41;5147679;27;20043;-77
2023/09/28 04:20:16;;;;;;;12.70;8.38;;;;;;;16.81;60.55;99388.88;5129066;27;20043;-76
2023/09/28 04:22:43;;;;;;;10.15;7.70;;;;;;;17.18;60.65;99434.09;5147509;27;20287;-76
2023/09/28 04:25:11;;;;;;;11.57;8.57;;;;;;;17.15;60.54;99443.25;5147195;27;20051;-76
2023/09/28 04:27:38;;;;;;;13.40;8.63;;;;;;;17.11;61.04;99443.63;5129031;27;20058;-77
2023/09/28 04:30:06;;;;;;;9.25;7.63;;;;;;;17.17;60.96;99440.44;5129147;27;20194;-77
2023/09/28 04:32:35;;;;;;;9.85;7.55;;;;;;;16.63;60.96;99364.41;5147171;27;20111;-77
2023/09/28 04:35:05;;;;;;;13.18;8.40;;;;;;;17.04;60.93;99437.91;5147374;27;20287;-76
2023/09/28 04:37:32;;;;;;;10.60;8.20;;;;;;;16.80;61.20;99459.44;5128935;27;20078;-76
2023/09/28 04:39:59;;;;;;;11.27;8.57;;;;;;;16.89;61.74;99458.72;5147054;27;20050;-76
2023/09/28 04:42:26;;;;;;;11.48;7.47;;;;;;;16.51;61.45;99407.34;5128689;27;20295;-76
2023/09/28 04:44:53;;;;;;;12.00;7.90;;;;;;;16.91;61.85;99462.13;5128561;27;20180;-77
2023/09/28 04:47:19;;;;;;;10.30;7.53;;;;;;;17.00;61.77;99458.72;5146709;27;20042;-77
2023/09/28 04:49:48;;;;;;;9.13;7.28;;;;;;;17.07;60.96;99461.75;5147006;27;20047;-76
2023/09/28 04:52:17;;;;;;;10.02;8.40;;;;;;;17.07;61.37;99452.88;5125208;28;20131;-76
2023/09/28 04:54:44;;;;;;;11.75;7.80;;;;;;;16.67;61.55;99399.84;5126331;28;20070;-76
2023/09/28 04:57:11;;;;;;;9.43;8.05;;;;;;;16.63;61.48;99401.03;5126334;28;20107;-77
2023/09/28 04:59:38;;;;;;;10.57;8.10;;;;;;;16.74;61.85;99408.22;5125980;28;20047;-77
2023/09/28 05:02:06;;;;;;;11.70;8.60;;;;;;;17.06;61.30;99464.56;5125851;28;20177;-77
2023/09/28 05:04:32;;;;;;;13.05;7.85;;;;;;;16.95;61.65;99463.59;5125551;28;20043;-77
2023/09/28 05:07:01;;;;;;;8.88;7.18;;;;;;;16.99;61.91;99467.72;5125788;28;20292;-76
2023/09/28 05:09:28;;;;;;;10.77;7.60;;;;;;;17.03;61.63;99465.66;5126092;28;20112;-77
2023/09/28 05:11:56;;;;;;;10.93;7.85;;;;;;;16.73;61.49;99446.69;5125570;28;20058;-76
2023/09/28 05:14:24;;;;;;;10.30;7.80;;;;;;;16.87;61.66;99471.38;5126105;28;20083;-77
2023/09/28 05:18:20;;;;;;;10.77;7.15;;;;;;;16.50;62.17;99416.34;5124429;27;20602;-75
2023/09/28 05:20:47;;;;;;;9.95;7.22;;;;;;;16.93;62.05;99478.06;5122494;28;20258;-75
2023/09/28 05:23:13;;;;;;;8.98;7.53;;;;;;;17.02;61.49;99477.34;5122972;28;20040;-75
2023/09/28 05:25:40;;;;;;;10.38;7.88;;;;;;;17.04;61.64;99478.06;5123342;28;20101;-75
2023/09/28 05:28:07;;;;;;;9.88;7.75;;;;;;;15.93;61.58;99299.63;5123447;28;20056;-75
2023/09/28 05:30:33;;;;;;;10.55;9.07;;;;;;;16.66;63.08;99489.97;5123214;28;20066;-75
2023/09/28 05:33:00;;;;;;;13.88;8.25;;;;;;;16.79;63.17;99486.34;5122270;28;20040;-75
2023/09/28 05:35:30;;;;;;;13.32;8.43;;;;;;;16.78;62.52;99488.16;5123614;28;20199;-76
2023/09/28 05:37:57;;;;;;;13.15;8.98;;;;;;;16.76;62.58;99497.28;5122095;28;20036;-76
2023/09/28 05:40:25;;;;;;;12.32;8.60;;;;;;;16.14;62.60;99390.66;5123200;28;20039;-76
2023/09/28 05:42:54;;;;;;;14.48;7.93;;;;;;;15.89;63.59;99375.66;5123254;28;20120;-76
2023/09/28 05:45:21;;;;;;;15.77;9.25;;;;;;;16.61;63.39;99496.63;5121878;28;20043;-76
2023/09/28 05:47:47;;;;;;;10.18;8.40;;;;;;;16.65;63.95;99500.75;5121941;28;20035;-76
2023/09/28 05:50:15;;;;;;;10.23;8.45;;;;;;;16.71;63.73;99507.50;5123180;28;20238;-76
2023/09/28 05:52:43;;;;;;;10.40;7.93;;;;;;;16.76;63.44;99505.31;5122025;28;20067;-76
2023/09/28 05:55:10;;;;;;;11.93;8.68;;;;;;;16.30;63.99;99432.13;5121579;28;20066;-76
2023/09/28 05:57:37;;;;;;;10.23;8.63;;;;;;;16.76;63.38;99506.16;5122881;28;20043;-76
2023/09/28 06:00:07;;;;;;;11.77;9.10;;;;;;;16.63;63.75;99518.75;5121519;28;20040;-76
2023/09/28 06:02:35;;;;;;;11.82;8.82;;;;;;;16.70;64.10;99525.38;5121502;28;20067;-76
2023/09/28 06:05:02;;;;;;;16.00;8.70;;;;;;;16.63;63.63;99494.69;5156102;27;20036;-76
2023/09/28 06:07:29;;;;;;;12.13;8.38;;;;;;;16.46;63.34;99468.38;5121527;28;20043;-76
2023/09/28 06:09:57;;;;;;;12.10;8.45;;;;;;;16.93;63.53;99515.53;5104395;28;20039;-76
2023/09/28 06:12:24;;;;;;;12.43;8.50;;;;;;;16.98;63.92;99516.03;5121455;28;20323;-76
2023/09/28 06:14:51;;;;;;;9.32;7.95;;;;;;;17.05;63.18;99516.41;5122189;28;20341;-76
2023/09/28 06:17:18;;;;;;;12.52;8.57;;;;;;;17.08;62.72;99514.34;5121040;28;20309;-76
2023/09/28 06:19:45;;;;;;;10.82;8.02;;;;;;;15.63;62.36;99287.63;5122855;28;20100;-76
2023/09/28 06:22:11;;;;;;;12.52;8.43;;;;;;;16.80;62.49;99480.88;5122237;28;20051;-76
2023/09/28 06:24:38;;;;;;;12.82;8.98;;;;;;;16.59;62.67;99434.34;5121308;28;20036;-76
2023/09/28 06:27:07;;;;;;;11.05;8.77;;;;;;;17.19;62.19;99527.72;5121206;28;20040;-76
2023/09/28 06:29:33;;;;;;;9.48;7.85;;;;;;;17.25;62.28;99523.72;5109101;28;20292;-76
2023/09/28 06:32:00;;;;;;;11.75;8.52;;;;;;;17.30;62.17;99526.91;5108174;28;20090;-76
2023/09/28 06:34:27;;;;;;;10.20;7.60;;;;;;;17.07;61.95;99477.81;5107414;28;20047;-76
2023/09/28 06:36:54;;;;;;;10.90;8.23;;;;;;;16.56;61.60;99383.75;5107956;28;20032;-75
2023/09/28 06:39:20;;;;;;;10.05;8.07;;;;;;;17.40;62.22;99522.50;5108470;28;20040;-76
2023/09/28 06:41:48;;;;;;;9.68;7.80;;;;;;;16.98;61.42;99458.00;5108672;28;20051;-76
2023/09/28 06:44:17;;;;;;;12.98;8.07;;;;;;;17.48;61.78;99530.78;5108217;28;20181;-76
2023/09/28 06:46:44;;;;;;;13.65;8.60;;;;;;;17.53;61.63;99525.03;5108024;28;20246;-76
2023/09/28 06:49:12;;;;;;;11.23;7.90;;;;;;;17.60;60.15;99534.28;5108088;28;20063;-76
2023/09/28 06:51:38;;;;;;;10.82;8.00;;;;;;;17.66;60.55;99539.19;5107388;28;20044;-76
2023/09/28 06:54:05;;;;;;;11.02;8.90;;;;;;;17.31;60.49;99462.47;5108489;28;20040;-76
2023/09/28 06:56:34;;;;;;;13.68;9.23;;;;;;;17.50;59.93;99469.03;5107053;28;20357;-76
2023/09/28 06:59:01;;;;;;;9.77;7.93;;;;;;;17.92;59.11;99537.03;5108355;28;20039;-76
2023/09/28 07:01:29;;;;;;;10.40;8.43;;;;;;;18.03;59.17;99534.31;5108674;28;20180;-76
2023/09/28 07:03:56;;;;;;;8.90;7.97;;;;;;;17.54;59.27;99460.59;5107890;28;20047;-76
2023/09/28 07:06:23;;;;;;;13.90;8.20;;;;;;;17.52;58.74;99457.19;5107378;28;20101;-76
2023/09/28 07:08:49;;;;;;;8.88;7.72;;;;;;;18.26;58.63;99537.75;5106886;28;20042;-76
2023/09/28 07:11:16;;;;;;;11.57;7.88;;;;;;;18.30;58.08;99541.03;5107809;28;20098;-76
2023/09/28 07:13:44;;;;;;;8.38;7.55;;;;;;;18.33;59.15;99541.63;5107545;28;20039;-76
2023/09/28 07:16:11;;;;;;;13.27;8.13;;;;;;;18.42;57.72;99540.84;5107682;28;20204;-76
2023/09/28 07:18:39;;;;;;;8.80;7.43;;;;;;;18.37;58.18;99526.13;5107278;28;20055;-76
2023/09/28 07:21:06;;;;;;;16.70;8.02;;;;;;;18.24;57.75;99497.66;5107289;28;20043;-76
2023/09/28 07:23:34;;;;;;;12.55;8.00;;;;;;;18.20;58.01;99479.25;5107189;28;20062;-76
2023/09/28 07:26:01;;;;;;;10.63;7.60;;;;;;;18.31;58.20;99489.09;5106463;28;20119;-76
2023/09/28 07:28:28;;;;;;;10.77;7.53;;;;;;;18.40;57.17;99491.84;5107488;28;20097;-76
2023/09/28 07:30:55;;;;;;;14.90;7.75;;;;;;;18.47;57.07;99501.06;5107554;28;20040;-76
2023/09/28 07:33:26;;;;;;;10.75;7.60;;;;;;;18.78;56.93;99539.56;5106844;28;20044;-76
2023/09/28 07:35:54;;;;;;;8.27;6.72;;;;;;;18.85;56.89;99548.81;5107074;28;20071;-76
2023/09/28 07:38:21;;;;;;;14.00;7.95;;;;;;;18.84;57.41;99548.94;5105861;28;20043;-76
2023/09/28 07:40:48;;;;;;;12.48;7.00;;;;;;;18.91;57.59;99544.75;5106260;28;20097;-76
2023/09/28 07:43:14;;;;;;;8.07;6.47;;;;;;;19.01;57.17;99547.47;5106719;28;20056;-76
2023/09/28 07:45:41;;;;;;;12.20;7.85;;;;;;;19.12;56.04;99548.25;5106850;28;20044;-76
2023/09/28 07:48:08;;;;;;;10.20;7.28;;;;;;;18.97;55.75;99500.38;5105989;28;20047;-76
2023/09/28 07:50:35;;;;;;;8.93;6.97;;;;;;;19.29;56.53;99549.44;5106942;28;20070;-76
2023/09/28 07:53:04;;;;;;;11.27;7.80;;;;;;;19.34;55.63;99543.66;5106211;28;20036;-76
2023/09/28 07:55:31;;;;;;;10.15;7.05;;;;;;;19.46;55.37;99545.31;5106822;28;20047;-76
2023/09/28 07:57:58;;;;;;;9.90;7.32;;;;;;;19.55;54.72;99548.00;5105892;28;20086;-76
2023/09/28 08:00:24;;;;;;;9.98;7.18;;;;;;;19.34;55.35;99508.72;5106778;28;20036;-75
2023/09/28 08:02:51;;;;;;;10.52;6.88;;;;;;;19.28;56.01;99495.84;5105781;28;20086;-75
2023/09/28 08:05:18;;;;;;;9.90;7.18;;;;;;;19.36;54.19;99502.22;5106778;28;20044;-76
2023/09/28 08:07:45;;;;;;;8.40;6.38;;;;;;;19.40;56.18;99509.06;5106564;28;20184;-76
2023/09/28 08:10:13;;;;;;;12.20;8.10;;;;;;;19.76;54.61;99539.88;5106675;28;20109;-76
2023/09/28 08:12:40;;;;;;;10.05;7.28;;;;;;;19.61;54.34;99484.78;5106766;28;20036;-76
2023/09/28 08:15:07;;;;;;;12.98;7.22;;;;;;;20.02;54.04;99542.06;5106873;28;20040;-76
2023/09/28 08:17:36;;;;;;;9.13;6.97;;;;;;;20.08;53.77;99533.44;5106047;28;20052;-76
2023/09/28 08:20:03;;;;;;;10.48;7.75;;;;;;;19.39;54.15;99429.44;5105388;28;20044;-76
2023/09/28 08:22:30;;;;;;;13.77;7.78;;;;;;;20.04;54.78;99540.94;5106832;28;20082;-76
2023/09/28 08:24:56;;;;;;;10.82;7.00;;;;;;;19.79;54.53;99501.09;5105381;28;20043;-76
2023/09/28 08:27:25;;;;;;;8.52;6.20;;;;;;;20.07;53.88;99546.03;5106308;28;20085;-76
2023/09/28 08:29:52;;;;;;;9.98;7.10;;;;;;;20.09;54.29;99546.72;5106717;28;20036;-76
2023/09/28 08:32:18;;;;;;;9.98;6.47;;;;;;;19.96;54.78;99527.31;5105485;28;20292;-76
2023/09/28 08:34:45;;;;;;;8.80;6.95;;;;;;;19.87;53.81;99485.13;5106248;28;20051;-76
2023/09/28 08:37:12;;;;;;;10.75;6.85;;;;;;;20.41;53.73;99548.34;5106551;28;20036;-76
2023/09/28 08:39:39;;;;;;;13.27;7.57;;;;;;;20.53;53.40;99539.13;5105948;28;20097;-76
2023/09/28 08:42:12;;;;;;;7.95;7.00;;;;;;;20.49;54.90;99543.09;5106099;28;20047;-76
2023/09/28 08:44:41;;;;;;;12.18;6.60;;;;;;;20.49;54.21;99546.63;5106363;28;20047;-76
2023/09/28 08:47:16;;;;;;;9.13;6.78;;;;;;;20.37;52.70;99496.63;5106280;28;20040;-75
2023/09/28 08:49:44;;;;;;;11.30;6.75;;;;;;;20.78;52.04;99541.19;5106383;28;20048;-75
2023/09/28 08:52:13;;;;;;;14.50;8.63;;;;;;;20.92;51.40;99531.81;5104748;28;20050;-76
2023/09/28 08:54:40;;;;;;;13.07;6.88;;;;;;;20.32;51.18;99433.47;5106359;28;20051;-76
2023/09/28 08:57:07;;;;;;;8.68;6.80;;;;;;;20.70;51.59;99465.66;5104945;28;20334;-76
2023/09/28 08:59:35;;;;;;;16.50;6.95;;;;;;;21.09;52.13;99525.69;5105929;28;20177;-76
2023/09/28 09:02:04;;;;;;;10.85;6.57;;;;;;;20.86;50.12;99462.34;5106348;28;20043;-76
2023/09/28 09:04:34;;;;;;;9.20;6.82;;;;;;;21.44;50.32;99530.34;5106196;28;20097;-76
2023/09/28 09:07:02;;;;;;;7.35;6.03;;;;;;;21.10;51.44;99468.09;5106199;28;20052;-76
2023/09/28 09:09:31;;;;;;;15.57;6.55;;;;;;;21.46;50.63;99531.06;5105584;28;20199;-76
2023/09/28 09:11:59;;;;;;;8.95;7.35;;;;;;;21.60;49.99;99524.31;5104702;28;20193;-76
2023/09/28 09:14:28;;;;;;;12.27;7.10;;;;;;;21.73;49.02;99530.19;5104927;28;20051;-76
2023/09/28 09:16:55;;;;;;;9.30;6.35;;;;;;;21.25;50.28;99430.72;5104465;28;20048;-76
2023/09/28 09:19:30;;;;;;;8.52;6.20;;;;;;;21.78;50.29;99529.75;5105403;28;20040;-76
2023/09/28 09:21:57;;;;;;;10.77;7.53;;;;;;;21.34;49.12;99437.91;5104703;28;20051;-75
2023/09/28 09:24:24;;;;;;;8.95;6.50;;;;;;;21.97;49.16;99524.25;5104543;28;20102;-75
2023/09/28 09:26:55;;;;;;;11.45;6.32;;;;;;;21.63;49.08;99482.72;5105958;28;20048;-76
2023/09/28 09:29:22;;;;;;;9.93;6.55;;;;;;;21.94;49.80;99519.16;5105967;28;20107;-76
2023/09/28 09:31:50;;;;;;;10.70;5.45;;;;;;;21.53;49.14;99450.41;5105723;28;20291;-76
2023/09/28 09:34:19;;;;;;;7.90;6.47;;;;;;;22.08;49.89;99531.25;5105161;28;20044;-76
2023/09/28 09:36:55;;;;;;;10.82;6.07;;;;;;;21.60;49.05;99423.69;5105383;28;20097;-76
2023/09/28 09:39:23;;;;;;;14.60;6.30;;;;;;;21.67;48.93;99438.25;5088030;28;20055;-75
2023/09/28 09:41:51;;;;;;;10.00;6.28;;;;;;;22.31;47.96;99529.78;5104405;28;20097;-75
2023/09/28 09:44:19;;;;;;;11.70;6.30;;;;;;;22.48;48.41;99524.56;5105337;28;20078;-76
2023/09/28 09:46:48;;;;;;;9.13;6.32;;;;;;;22.48;48.68;99540.78;5105479;28;20059;-76
2023/09/28 09:49:16;;;;;;;7.72;5.82;;;;;;;22.49;48.46;99508.22;5104239;28;20054;-76
2023/09/28 09:51:46;;;;;;;14.50;6.32;;;;;;;22.36;45.86;99448.31;5105485;28;20107;-75
2023/09/28 09:54:16;;;;;;;14.48;6.05;;;;;;;22.65;45.99;99472.41;5104136;28;20353;-76
2023/09/28 09:56:46;;;;;;;9.20;5.40;;;;;;;22.72;46.04;99486.97;5104385;28;20064;-75
2023/09/28 09:59:15;;;;;;;6.65;5.30;;;;;;;22.65;47.21;99465.13;5105035;28;20063;-76
2023/09/28 10:01:47;;;;;;;7.20;5.57;;;;;;;22.84;45.73;99484.84;5105149;28;20044;-76
2023/09/28 10:04:16;;;;;;;8.40;5.40;;;;;;;22.83;47.01;99461.53;5107103;28;20199;-75
2023/09/28 10:06:46;;;;;;;10.75;5.50;;;;;;;23.16;46.15;99506.66;5109529;28;20040;-76
2023/09/28 10:09:16;;;;;;;8.68;6.47;;;;;;;22.94;47.63;99472.91;5108259;28;20116;-76
2023/09/28 10:11:45;;;;;;;6.75;5.60;;;;;;;23.12;46.85;99505.28;5108684;28;20031;-76
2023/09/28 10:14:12;;;;;;;6.45;5.47;;;;;;;23.25;46.26;99515.66;5109183;28;20050;-76
2023/09/28 10:16:41;;;;;;;9.88;5.35;;;;;;;22.99;46.14;99462.47;5108306;28;20081;-76
2023/09/28 10:19:10;;;;;;;7.68;6.05;;;;;;;23.32;47.27;99516.72;5108800;28;20123;-76
2023/09/28 10:21:38;;;;;;;7.78;5.47;;;;;;;23.34;45.98;99509.28;5091941;28;20177;-76
2023/09/28 10:24:12;;;;;;;9.98;5.88;;;;;;;23.09;46.29;99438.00;5108190;28;20097;-76
2023/09/28 10:26:43;;;;;;;8.50;5.78;;;;;;;23.56;45.70;99502.44;5108253;28;20058;-76
2023/09/28 10:29:12;;;;;;;6.47;4.80;;;;;;;23.71;46.12;99497.25;5108587;28;20036;-76
2023/09/28 10:31:40;;;;;;;11.15;5.82;;;;;;;23.74;45.00;99496.91;5108609;28;20051;-76
2023/09/28 10:34:08;;;;;;;12.38;6.45;;;;;;;23.85;44.14;99491.19;5108389;28;20078;-76
2023/09/28 10:36:37;;;;;;;7.95;6.20;;;;;;;23.46;43.44;99401.66;5107511;28;20279;-76
2023/09/28 10:39:14;;;;;;;7.25;6.28;;;;;;;23.85;43.17;99437.06;5107614;28;20044;-76
2023/09/28 10:41:45;;;;;;;7.68;5.90;;;;;;;24.13;42.64;99475.53;5107544;28;20044;-76
2023/09/28 10:44:14;;;;;;;10.02;6.53;;;;;;;24.13;43.48;99476.38;5107224;28;20243;-76
2023/09/28 10:46:41;;;;;;;8.20;5.85;;;;;;;21.30;44.51;98999.84;5108041;28;20035;-76
2023/09/28 10:49:08;;;;;;;6.82;5.05;;;;;;;23.61;44.84;99392.72;5107668;28;20296;-76
2023/09/28 10:51:35;;;;;;;8.45;5.95;;;;;;;23.78;44.94;99411.69;5107971;28;20196;-76
2023/09/28 10:54:05;;;;;;;13.13;6.53;;;;;;;24.36;42.06;99470.28;5107640;28;20048;-76
2023/09/28 10:56:32;;;;;;;9.45;5.68;;;;;;;23.80;42.62;99375.34;5107862;28;20044;-76
2023/09/28 10:59:02;;;;;;;7.47;5.70;;;;;;;24.42;41.93;99472.31;5107901;28;20173;-76
2023/09/28 11:01:31;;;;;;;6.70;5.10;;;;;;;24.47;41.62;99478.06;5107478;28;20040;-76
2023/09/28 11:03:58;;;;;;;5.68;5.03;;;;;;;24.58;43.67;99477.72;5106768;28;20040;-76
2023/09/28 11:06:25;;;;;;;10.30;5.85;;;;;;;24.41;43.94;99467.91;5107096;28;20191;-76
2023/09/28 11:08:52;;;;;;;8.07;5.10;;;;;;;24.43;44.48;99460.47;5107424;28;20368;-76
2023/09/28 11:11:21;;;;;;;7.22;5.00;;;;;;;24.54;43.19;99462.81;5106442;28;20048;-76
2023/09/28 11:13:49;;;;;;;9.25;4.80;;;;;;;24.64;42.35;99456.19;5107601;28;20146;-76
2023/09/28 11:16:19;;;;;;;9.77;5.40;;;;;;;24.61;42.33;99455.69;5107354;28;20075;-76
2023/09/28 11:18:46;;;;;;;7.40;5.07;;;;;;;24.69;42.98;99454.88;5107602;28;20036;-76
2023/09/28 11:21:13;;;;;;;6.15;5.38;;;;;;;24.79;41.97;99453.66;5107657;28;20060;-76
2023/09/28 11:23:41;;;;;;;6.55;5.85;;;;;;;24.85;42.96;99447.53;5107502;28;20055;-76
2023/09/28 11:26:10;;;;;;;12.15;5.35;;;;;;;24.60;43.11;99416.91;5107096;28;20040;-76
2023/09/28 11:28:38;;;;;;;11.73;5.35;;;;;;;24.73;43.63;99451.63;5107102;28;20055;-76
2023/09/28 11:31:11;;;;;;;7.35;5.40;;;;;;;24.40;42.99;99404.75;5106617;28;20089;-75
2023/09/28 11:33:40;;;;;;;9.40;4.70;;;;;;;24.68;41.92;99453.19;5107420;28;20067;-75